»·PEaware :: N48427 KLAX-KSNA

N48427 :: KLAX-KSNA

FLIGHT INFORMATION

Flight Status: Arrived
Operator: Privately registered:
United States
More flights under this callsign
Pilot: Brian D. (22974)
Aircraft: Unknown
(P28U)
More flights by this aircraft type
Origin: KLAX Los Angeles Intl
United States
Destination: KSNA John Wayne-Orange Co
United States
More flights between these airports :: More routes between these airports
Route: SLI 8 SLI
File this flight plan on PilotEdge
Remarks: LAXP55 I-6
Altitude:
(Current/Filed)
4,000ft
Speed:
(Current/Filed)
120kts
Departed: 09-Jan-20 10:21 PM
Arrived: 09-Jan-20 11:05 PM
Distance/Time
Traveled:
31nm/0:44
Distance/Time
To Go:
Arrived

Flight Plot

Page will automatically refresh every two minutes.

Flight plan parsing failed; only flown route is shown


Map Options




Map Legend


Flown Route
Filed Route
Departure Airport
Arrival Airport
Navaid (VOR, NDB)
Fix

Horizontal Profiles

Position Reports

Time Latitude Longitude Heading Altitude Ground
Speed
09-Jan-20 21:45 33.933639 -118.399949 171 130ft 0kts
09-Jan-20 21:46 33.933639 -118.399949 171 130ft 0kts
09-Jan-20 21:47 33.933639 -118.399949 171 130ft 0kts
09-Jan-20 21:48 33.933639 -118.399949 171 130ft 0kts
09-Jan-20 21:49 33.933639 -118.399949 171 130ft 0kts
09-Jan-20 21:50 33.933639 -118.399949 171 130ft 0kts
09-Jan-20 21:51 33.933639 -118.399949 171 130ft 0kts
09-Jan-20 21:52 33.933639 -118.399949 171 130ft 0kts
09-Jan-20 21:53 33.933639 -118.399949 171 130ft 0kts
09-Jan-20 21:54 33.933639 -118.399949 171 130ft 0kts
09-Jan-20 21:55 33.933639 -118.399949 171 130ft 0kts
09-Jan-20 21:56 33.933639 -118.399949 171 130ft 0kts
09-Jan-20 21:57 33.933639 -118.399949 171 130ft 0kts
09-Jan-20 21:58 33.933639 -118.399949 171 130ft 0kts
09-Jan-20 21:59 33.933639 -118.399949 171 130ft 0kts
09-Jan-20 22:00 33.933639 -118.399949 171 130ft 0kts
09-Jan-20 22:01 33.933639 -118.399949 171 130ft 0kts
09-Jan-20 22:02 33.933639 -118.399949 171 130ft 0kts
09-Jan-20 22:03 33.933639 -118.399949 171 130ft 0kts
09-Jan-20 22:04 33.933639 -118.399949 171 130ft 0kts
09-Jan-20 22:05 33.933639 -118.399949 171 130ft 0kts
09-Jan-20 22:06 33.933639 -118.399949 171 130ft 0kts
09-Jan-20 22:07 33.933639 -118.399949 171 130ft 0kts
09-Jan-20 22:08 33.933639 -118.399949 171 130ft 0kts
09-Jan-20 22:09 33.933639 -118.399949 171 130ft 0kts
09-Jan-20 22:10 33.933639 -118.399949 171 130ft 0kts
09-Jan-20 22:11 33.933526 -118.399781 92 130ft 3kts
09-Jan-20 22:12 33.934614 -118.397547 83 130ft 12kts
09-Jan-20 22:13 33.935061 -118.393208 82 130ft 15kts
09-Jan-20 22:14 33.935560 -118.388291 81 130ft 20kts
09-Jan-20 22:15 33.936048 -118.383538 84 130ft 12kts
09-Jan-20 22:16 33.936509 -118.382763 3 130ft 0kts
09-Jan-20 22:17 33.936509 -118.382763 3 130ft 0kts
09-Jan-20 22:18 33.936509 -118.382763 3 130ft 0kts
09-Jan-20 22:19 33.936588 -118.382760 358 130ft 6kts
09-Jan-20 22:20 33.936085 -118.395418 262 224ft 95kts
09-Jan-20 22:21 33.932709 -118.437520 266 1374ft 113kts
09-Jan-20 22:22 33.910327 -118.458300 173 2257ft 119kts
09-Jan-20 22:23 33.876872 -118.455124 181 3109ft 122kts
09-Jan-20 22:24 33.842893 -118.449566 171 3897ft 124kts
09-Jan-20 22:25 33.810590 -118.433583 146 4464ft 137kts
09-Jan-20 22:26 33.779474 -118.408127 144 4265ft 139kts
09-Jan-20 22:27 33.748545 -118.380222 143 3981ft 131kts
09-Jan-20 22:28 33.720388 -118.352585 145 3983ft 131kts
09-Jan-20 22:29 33.691799 -118.325197 145 3983ft 131kts
09-Jan-20 22:30 33.663003 -118.297780 145 3983ft 131kts
09-Jan-20 22:31 33.643116 -118.264639 70 3975ft 130kts
09-Jan-20 22:32 33.667219 -118.234782 40 3983ft 124kts
09-Jan-20 22:33 33.690242 -118.203878 46 3983ft 123kts
09-Jan-20 22:34 33.711418 -118.171490 50 3983ft 122kts
09-Jan-20 22:35 33.731271 -118.138777 50 3983ft 121kts
09-Jan-20 22:36 33.750783 -118.106892 50 3983ft 117kts
09-Jan-20 22:37 33.769992 -118.075838 50 3983ft 115kts
09-Jan-20 22:38 33.788744 -118.044844 61 3982ft 115kts
09-Jan-20 22:39 33.802547 -118.010764 60 3981ft 114kts
09-Jan-20 22:40 33.816482 -117.977207 60 3980ft 113kts
09-Jan-20 22:41 33.830329 -117.943865 61 3979ft 112kts
09-Jan-20 22:42 33.844247 -117.910290 61 3978ft 112kts
09-Jan-20 22:43 33.858148 -117.876597 61 3977ft 113kts
09-Jan-20 22:44 33.872118 -117.842467 61 3976ft 113kts
09-Jan-20 22:45 33.885929 -117.808270 61 3976ft 114kts
09-Jan-20 22:46 33.899741 -117.773568 61 3977ft 115kts
09-Jan-20 22:47 33.913444 -117.738863 61 4005ft 114kts
09-Jan-20 22:48 33.928884 -117.706656 31 4004ft 112kts
09-Jan-20 22:49 33.956965 -117.685650 27 3630ft 120kts
09-Jan-20 22:50 33.986143 -117.667650 24 3471ft 111kts
09-Jan-20 22:51 34.010955 -117.677161 283 3465ft 113kts
09-Jan-20 22:52 33.989697 -117.703010 209 3470ft 119kts
09-Jan-20 22:53 33.960245 -117.721905 209 3472ft 119kts
09-Jan-20 22:54 33.929105 -117.731909 165 3474ft 120kts
09-Jan-20 22:55 33.896386 -117.727863 198 3479ft 120kts
09-Jan-20 22:56 33.867080 -117.746642 209 3477ft 120kts
09-Jan-20 22:57 33.836167 -117.766128 209 3157ft 129kts
09-Jan-20 22:58 33.804450 -117.786339 209 2772ft 131kts
09-Jan-20 22:59 33.772567 -117.806923 209 2184ft 140kts
09-Jan-20 23:00 33.741769 -117.827125 209 1525ft 141kts
09-Jan-20 23:01 33.717862 -117.842770 209 929ft 83kts
09-Jan-20 23:02 33.699632 -117.853871 207 491ft 80kts
09-Jan-20 23:03 33.681137 -117.865516 208 124ft 80kts
09-Jan-20 23:04 33.670630 -117.872077 207 59ft 14kts
09-Jan-20 23:05 33.671012 -117.873295 27 59ft 11kts
09-Jan-20 23:06 33.673128 -117.871957 26 59ft 9kts
09-Jan-20 23:07 33.674093 -117.872153 281 59ft 0kts
09-Jan-20 23:08 33.674093 -117.872153 281 59ft 0kts
09-Jan-20 23:09 33.674093 -117.872153 281 59ft 0kts
09-Jan-20 23:10 33.674093 -117.872153 281 59ft 0kts
09-Jan-20 23:11 33.674093 -117.872153 281 59ft 0kts
09-Jan-20 23:12 33.674093 -117.872153 281 59ft 0kts
09-Jan-20 23:13 33.674093 -117.872153 281 59ft 0kts
09-Jan-20 23:14 33.674093 -117.872153 281 59ft 0kts
09-Jan-20 23:15 33.674093 -117.872153 281 59ft 0kts
09-Jan-20 23:16 33.674093 -117.872153 281 59ft 0kts
09-Jan-20 23:17 33.674093 -117.872153 281 59ft 0kts
09-Jan-20 23:18 33.674093 -117.872153 281 59ft 0kts
09-Jan-20 23:19 33.674093 -117.872153 281 59ft 0kts

Navigation Log

Ident Type
Flight plan parsing failed, navigation log unavailable